Bremen, Kansas
Current Conditions -  °F | °C
As of 8:35 PM on Tuesday 25 Nov 2014 (Local Time) from KMYZ Reporting Station
Broken Clouds Broken Clouds  
Wind Chill: 35°   Ceiling: 10000
Heat Index: 41°   Visibility: 10mi
Dew Point: 27°   Wind: 9mph
Humidity: 57%   Direction: 160°SSE
Pressure: 29.9"   Gusts: NA
Location:  39.9°N, 96.79°W
Report Text: KMYZ 260235Z AUTO 16008KT 10SM BKN100 05/M03 A2990 RMK AO2
Loading
Personal Weather Stations






























Interactive Weather Map New forecast layout! Learn more

10-Day Weather Forecast

Advertisements
Track Severe Weather on mobile